Time;durP1;ratioP1;P1;durP2;ratioP2;P2;SDS_P1;SDS_P2;PMS_P1;PMS_P2;Temp;Humidity;BMP_temperature;BMP_pressure;BME280_temperature;BME280_humidity;BME280_pressure;Samples;Min_cycle;Max_cycle;Signal;HPM_P1;HPM_P2
2022/06/16 00:01:13;;;;;;;;;;;16.40;82.30;;;;;;5034510;28;20244;-75
2022/06/16 00:03:40;;;;;;;;;;;16.30;82.90;;;;;;5035393;28;20263;-75
2022/06/16 00:06:08;;;;;;;;;;;16.30;82.90;;;;;;5034979;28;19928;-75
2022/06/16 00:08:35;;;;;;;;;;;16.20;82.70;;;;;;5035501;28;19921;-75
2022/06/16 00:11:19;;;;;;;;;;;16.20;83.10;;;;;;5035692;28;19928;-75
2022/06/16 00:13:47;;;;;;;;;;;16.20;83.60;;;;;;5034492;28;19920;-75
2022/06/16 00:16:15;;;;;;;;;;;16.10;83.50;;;;;;5018367;28;19921;-74
2022/06/16 00:18:42;;;;;;;;;;;16.10;84.70;;;;;;5035438;28;20247;-75
2022/06/16 00:21:10;;;;;;;;;;;16.10;84.20;;;;;;5034339;28;19925;-75
2022/06/16 00:23:38;;;;;;;;;;;16.00;84.60;;;;;;5035528;28;19939;-75
2022/06/16 00:26:14;;;;;;;;;;;16.00;84.80;;;;;;5034239;28;20378;-75
2022/06/16 00:28:42;;;;;;;;;;;16.00;84.50;;;;;;5018564;28;19925;-75
2022/06/16 00:31:10;;;;;;;;;;;16.00;84.90;;;;;;5018035;28;20283;-74
2022/06/16 00:33:38;;;;;;;;;;;16.00;85.10;;;;;;5017116;28;19921;-75
2022/06/16 00:36:06;;;;;;;;;;;16.00;85.40;;;;;;5035148;28;19921;-75
2022/06/16 00:38:33;;;;;;;;;;;15.90;84.80;;;;;;5035334;28;19928;-75
2022/06/16 00:41:01;;;;;;;;;;;15.90;84.90;;;;;;5034020;28;19921;-75
2022/06/16 00:43:29;;;;;;;;;;;15.90;85.10;;;;;;5035170;28;19921;-75
2022/06/16 00:46:01;;;;;;;;;;;15.80;85.10;;;;;;5000472;28;19921;-75
2022/06/16 00:48:31;;;;;;;;;;;15.80;85.30;;;;;;5035500;28;19921;-75
2022/06/16 00:51:00;;;;;;;;;;;15.80;85.70;;;;;;5017724;28;19928;-74
2022/06/16 00:53:28;;;;;;;;;;;15.80;85.90;;;;;;5034084;28;19929;-75
2022/06/16 00:55:56;;;;;;;;;;;15.70;86.20;;;;;;5017616;28;19921;-74
2022/06/16 00:58:24;;;;;;;;;;;15.60;86.60;;;;;;5035386;28;19928;-75
2022/06/16 01:00:52;;;;;;;;;;;15.60;87.50;;;;;;5016840;28;19921;-75
2022/06/16 01:06:20;;;;;;;;;;;15.50;87.20;;;;;;5034484;28;20340;-75
2022/06/16 01:08:51;;;;;;;;;;;15.40;87.70;;;;;;5034928;28;19921;-74
2022/06/16 01:14:56;;;;;;;;;;;15.30;87.60;;;;;;5035343;28;19921;-74
2022/06/16 01:17:24;;;;;;;;;;;15.30;88.30;;;;;;5021801;28;19921;-75
2022/06/16 01:20:02;;;;;;;;;;;15.20;87.80;;;;;;5037916;28;19925;-75
2022/06/16 01:22:38;;;;;;;;;;;15.20;88.00;;;;;;5038616;28;19921;-75
2022/06/16 01:25:19;;;;;;;;;;;15.10;88.40;;;;;;5021715;28;19921;-75
2022/06/16 01:28:10;;;;;;;;;;;15.00;89.00;;;;;;5020264;28;19929;-75
2022/06/16 01:30:46;;;;;;;;;;;15.00;89.00;;;;;;5038541;28;19928;-75
2022/06/16 01:33:14;;;;;;;;;;;14.90;89.70;;;;;;5020640;28;19921;-75
2022/06/16 01:35:54;;;;;;;;;;;14.80;89.60;;;;;;5021351;28;19929;-75
2022/06/16 01:38:22;;;;;;;;;;;14.80;90.30;;;;;;5021128;28;19928;-75
2022/06/16 01:41:08;;;;;;;;;;;14.70;90.30;;;;;;5037262;28;19928;-75
2022/06/16 01:43:42;;;;;;;;;;;14.70;90.60;;;;;;5038251;28;19932;-75
2022/06/16 01:46:10;;;;;;;;;;;14.60;90.50;;;;;;5020235;28;19921;-75
2022/06/16 01:48:40;;;;;;;;;;;14.60;90.70;;;;;;5020998;28;19932;-75
2022/06/16 01:51:13;;;;;;;;;;;14.60;90.80;;;;;;5004434;28;20255;-75
2022/06/16 01:53:44;;;;;;;;;;;14.50;90.90;;;;;;5037065;28;19921;-75
2022/06/16 01:56:15;;;;;;;;;;;14.50;90.80;;;;;;5038087;28;19925;-75
2022/06/16 01:58:45;;;;;;;;;;;15.80;91.50;;;;;;5020788;28;19921;-75
2022/06/16 02:01:15;;;;;;;;;;;14.50;90.90;;;;;;5019640;28;19921;-75
2022/06/16 02:03:49;;;;;;;;;;;14.40;91.40;;;;;;5038051;28;19921;-74
2022/06/16 02:06:23;;;;;;;;;;;14.40;91.10;;;;;;5056039;28;19920;-75
2022/06/16 02:08:53;;;;;;;;;;;14.40;91.20;;;;;;5057091;28;19927;-75
2022/06/16 02:11:23;;;;;;;;;;;14.40;91.30;;;;;;5058136;28;19928;-74
2022/06/16 02:13:57;;;;;;;;;;;14.40;91.40;;;;;;5055784;28;20286;-75
2022/06/16 02:16:31;;;;;;;;;;;14.40;91.40;;;;;;5057046;28;20331;-75
2022/06/16 02:19:00;;;;;;;;;;;14.40;91.20;;;;;;5056569;28;20262;-75
2022/06/16 02:21:32;;;;;;;;;;;14.40;91.30;;;;;;5055556;28;19928;-75
2022/06/16 02:24:00;;;;;;;;;;;14.30;91.20;;;;;;5056779;28;19927;-75
2022/06/16 02:26:27;;;;;;;;;;;14.30;91.30;;;;;;5055208;28;19920;-75
2022/06/16 02:28:57;;;;;;;;;;;14.30;91.40;;;;;;5057684;28;19924;-75
2022/06/16 02:31:31;;;;;;;;;;;14.30;91.70;;;;;;5057272;28;19928;-74
2022/06/16 02:34:07;;;;;;;;;;;14.20;91.60;;;;;;5055596;28;19921;-75
2022/06/16 02:36:37;;;;;;;;;;;14.20;91.60;;;;;;5056574;28;19920;-74
2022/06/16 02:39:08;;;;;;;;;;;14.20;91.70;;;;;;5056679;28;19921;-75
2022/06/16 02:41:52;;;;;;;;;;;14.20;91.60;;;;;;5055234;28;20244;-75
2022/06/16 02:44:19;;;;;;;;;;;14.20;91.90;;;;;;5057661;28;19921;-74
2022/06/16 02:47:01;;;;;;;;;;;14.10;91.80;;;;;;5055047;28;19920;-75
2022/06/16 02:49:32;;;;;;;;;;;14.20;91.90;;;;;;5023641;28;20347;-75
2022/06/16 02:52:06;;;;;;;;;;;14.10;91.80;;;;;;5039734;28;19932;-75
2022/06/16 02:54:43;;;;;;;;;;;14.00;91.90;;;;;;5055155;28;19920;-74
2022/06/16 02:57:12;;;;;;;;;;;14.00;92.10;;;;;;5056316;28;19940;-75
2022/06/16 02:59:48;;;;;;;;;;;14.00;92.10;;;;;;5054805;28;19921;-74
2022/06/16 03:02:19;;;;;;;;;;;14.00;92.40;;;;;;5039566;28;19920;-75
2022/06/16 03:04:50;;;;;;;;;;;14.00;92.40;;;;;;5055665;28;19921;-74
2022/06/16 03:07:20;;;;;;;;;;;13.90;92.30;;;;;;5054725;28;19927;-75
2022/06/16 03:09:58;;;;;;;;;;;13.90;92.50;;;;;;5056069;28;19927;-75
2022/06/16 03:12:26;;;;;;;;;;;13.90;92.50;;;;;;5055885;28;19943;-75
2022/06/16 03:14:53;;;;;;;;;;;13.80;92.70;;;;;;5054758;28;20286;-75
2022/06/16 03:17:24;;;;;;;;;;;13.80;92.70;;;;;;5056153;28;19920;-75
2022/06/16 03:19:52;;;;;;;;;;;13.80;93.00;;;;;;5055247;28;19924;-75
2022/06/16 03:22:19;;;;;;;;;;;13.80;92.70;;;;;;5056919;28;19928;-75
2022/06/16 03:24:47;;;;;;;;;;;13.80;92.60;;;;;;5055800;28;19924;-75
2022/06/16 03:27:14;;;;;;;;;;;13.80;92.60;;;;;;5054409;28;19921;-75
2022/06/16 03:29:43;;;;;;;;;;;13.80;92.80;;;;;;5055297;28;19920;-74
2022/06/16 03:32:13;;;;;;;;;;;13.80;92.90;;;;;;5055648;28;19921;-74
2022/06/16 03:34:42;;;;;;;;;;;13.70;93.00;;;;;;5054201;28;19921;-75
2022/06/16 03:37:12;;;;;;;;;;;13.70;93.10;;;;;;5054601;28;19921;-75
2022/06/16 03:39:43;;;;;;;;;;;13.70;92.90;;;;;;5054205;28;19927;-75
2022/06/16 03:42:10;;;;;;;;;;;13.70;93.00;;;;;;5056145;28;19920;-75
2022/06/16 03:44:39;;;;;;;;;;;13.70;93.10;;;;;;5055058;28;19920;-74
2022/06/16 03:47:10;;;;;;;;;;;13.70;93.30;;;;;;5054118;28;19927;-75
2022/06/16 03:49:41;;;;;;;;;;;13.70;93.20;;;;;;5055274;28;19921;-74
2022/06/16 03:52:09;;;;;;;;;;;13.70;93.20;;;;;;5054981;28;19920;-75
2022/06/16 03:54:41;;;;;;;;;;;13.70;93.50;;;;;;5053802;28;19921;-74
2022/06/16 03:57:13;;;;;;;;;;;13.60;93.40;;;;;;5054964;28;19920;-75
2022/06/16 03:59:41;;;;;;;;;;;13.60;93.30;;;;;;5053722;28;19927;-74
2022/06/16 04:02:44;;;;;;;;;;;13.60;93.50;;;;;;5052807;28;19921;-74
2022/06/16 04:05:14;;;;;;;;;;;13.60;93.40;;;;;;5002643;28;19921;-75
2022/06/16 04:07:48;;;;;;;;;;;13.60;93.60;;;;;;5017408;28;19921;-75
2022/06/16 04:10:23;;;;;;;;;;;13.60;93.40;;;;;;5018373;28;19928;-75
2022/06/16 04:12:50;;;;;;;;;;;13.50;93.70;;;;;;5001183;28;19928;-75
2022/06/16 04:15:24;;;;;;;;;;;13.50;93.70;;;;;;5018508;28;19928;-75
2022/06/16 04:17:54;;;;;;;;;;;13.50;93.80;;;;;;5018170;28;20283;-75
2022/06/16 04:20:24;;;;;;;;;;;13.50;94.10;;;;;;5017432;28;20371;-75
2022/06/16 04:23:06;;;;;;;;;;;13.50;93.90;;;;;;5018228;28;19921;-74
2022/06/16 04:25:33;;;;;;;;;;;13.50;94.00;;;;;;5018402;28;20356;-75
2022/06/16 04:28:11;;;;;;;;;;;13.50;94.00;;;;;;5002155;28;19921;-75
2022/06/16 04:30:46;;;;;;;;;;;13.60;94.10;;;;;;5018496;28;19929;-74
2022/06/16 04:33:13;;;;;;;;;;;13.60;94.10;;;;;;5017046;28;19921;-74
2022/06/16 04:35:41;;;;;;;;;;;13.70;93.90;;;;;;5018051;28;20374;-75
2022/06/16 04:38:11;;;;;;;;;;;13.70;94.10;;;;;;5017998;28;20275;-75
2022/06/16 04:40:40;;;;;;;;;;;13.70;94.10;;;;;;5033939;28;19921;-75
2022/06/16 04:43:14;;;;;;;;;;;13.80;93.90;;;;;;5017917;28;19928;-74
2022/06/16 04:45:46;;;;;;;;;;;13.80;94.00;;;;;;5017780;28;19921;-74
2022/06/16 04:48:13;;;;;;;;;;;13.70;94.00;;;;;;5016621;28;19928;-75
2022/06/16 04:50:43;;;;;;;;;;;13.80;94.10;;;;;;5017715;28;19921;-75
2022/06/16 04:53:14;;;;;;;;;;;13.90;94.10;;;;;;5016626;28;19921;-75
2022/06/16 04:56:04;;;;;;;;;;;13.90;94.10;;;;;;5017856;28;19921;-75
2022/06/16 04:58:45;;;;;;;;;;;14.00;94.00;;;;;;5017835;28;19921;-75
2022/06/16 05:01:32;;;;;;;;;;;14.10;94.00;;;;;;5000156;28;19932;-75
2022/06/16 05:04:09;;;;;;;;;;;14.10;94.00;;;;;;5042180;28;19928;-75
2022/06/16 05:07:03;;;;;;;;;;;14.30;93.80;;;;;;5045767;28;20410;-75
2022/06/16 05:09:38;;;;;;;;;;;14.40;93.70;;;;;;5053800;28;20457;-75
2022/06/16 05:12:24;;;;;;;;;;;14.50;93.80;;;;;;5055224;28;19921;-75
2022/06/16 05:15:05;;;;;;;;;;;14.60;93.50;;;;;;5053886;28;19944;-75
2022/06/16 05:17:48;;;;;;;;;;;14.70;93.50;;;;;;5055030;28;19924;-75
2022/06/16 05:20:32;;;;;;;;;;;14.80;93.40;;;;;;5052925;28;19920;-74
2022/06/16 05:23:28;;;;;;;;;;;14.90;93.70;;;;;;5037387;28;19921;-74
2022/06/16 05:25:58;;;;;;;;;;;15.00;93.10;;;;;;5053883;28;20405;-76
2022/06/16 05:28:46;;;;;;;;;;;15.10;93.20;;;;;;5053740;28;19927;-75
2022/06/16 05:31:29;;;;;;;;;;;15.30;92.90;;;;;;5054129;28;19928;-74
2022/06/16 05:34:00;;;;;;;;;;;15.40;93.10;;;;;;5036963;28;19928;-75
2022/06/16 05:36:43;;;;;;;;;;;15.40;93.10;;;;;;5039008;28;19921;-75
2022/06/16 05:39:27;;;;;;;;;;;15.60;92.80;;;;;;5052491;28;19931;-74
2022/06/16 05:42:15;;;;;;;;;;;15.60;92.60;;;;;;5053305;28;19920;-75
2022/06/16 05:45:03;;;;;;;;;;;15.70;92.50;;;;;;5054532;28;19921;-75
2022/06/16 05:47:51;;;;;;;;;;;15.70;92.50;;;;;;5052988;28;20378;-74
2022/06/16 05:50:18;;;;;;;;;;;15.80;92.50;;;;;;5053838;28;20266;-75
2022/06/16 05:52:46;;;;;;;;;;;15.80;92.60;;;;;;5052646;28;20351;-75
2022/06/16 05:55:21;;;;;;;;;;;15.80;92.50;;;;;;5037169;28;20271;-75
2022/06/16 05:57:49;;;;;;;;;;;15.80;92.50;;;;;;5037129;28;19920;-75
2022/06/16 06:00:17;;;;;;;;;;;15.80;92.90;;;;;;5053457;28;19932;-75
2022/06/16 06:02:56;;;;;;;;;;;15.80;92.50;;;;;;5054634;28;19932;-75
2022/06/16 06:05:31;;;;;;;;;;;15.80;92.70;;;;;;5004926;28;19920;-75
2022/06/16 06:16:25;;;;;;;;;;;16.00;92.30;;;;;;5020621;28;20374;-75
2022/06/16 06:18:57;;;;;;;;;;;16.10;92.00;;;;;;5020844;28;19921;-75
2022/06/16 06:24:11;;;;;;;;;;;16.20;92.20;;;;;;5020187;28;19921;-75
2022/06/16 06:26:39;;;;;;;;;;;16.30;92.00;;;;;;5019197;28;20263;-75
2022/06/16 06:29:06;;;;;;;;;;;16.30;91.90;;;;;;5020197;28;19928;-75
2022/06/16 06:31:34;;;;;;;;;;;16.40;91.80;;;;;;5020147;28;19921;-75
2022/06/16 06:34:02;;;;;;;;;;;16.40;91.80;;;;;;5019208;28;19921;-75
2022/06/16 06:36:31;;;;;;;;;;;16.40;92.00;;;;;;5020313;28;20244;-75
2022/06/16 06:38:59;;;;;;;;;;;16.40;92.00;;;;;;5020003;28;20291;-76
2022/06/16 06:41:29;;;;;;;;;;;16.70;91.90;;;;;;5036057;28;19941;-75
2022/06/16 06:43:58;;;;;;;;;;;16.50;91.80;;;;;;5004164;28;19921;-75
2022/06/16 06:46:26;;;;;;;;;;;16.70;91.90;;;;;;5018791;28;20271;-75
2022/06/16 06:48:57;;;;;;;;;;;16.70;91.80;;;;;;5036358;28;19925;-75
2022/06/16 06:51:25;;;;;;;;;;;16.80;92.00;;;;;;5036847;28;20361;-75
2022/06/16 06:53:52;;;;;;;;;;;16.80;92.10;;;;;;5018422;28;19921;-75
2022/06/16 06:56:20;;;;;;;;;;;16.90;92.00;;;;;;5036714;28;19931;-76
2022/06/16 06:58:47;;;;;;;;;;;16.90;91.50;;;;;;5036721;28;19996;-75
2022/06/16 07:01:14;;;;;;;;;;;17.00;91.60;;;;;;5035418;28;19921;-75
2022/06/16 07:03:42;;;;;;;;;;;17.10;91.60;;;;;;5035798;28;19921;-74
2022/06/16 07:06:10;;;;;;;;;;;17.10;91.60;;;;;;5038049;28;19921;-75
2022/06/16 07:08:37;;;;;;;;;;;17.20;91.60;;;;;;5056484;28;19920;-75
2022/06/16 07:11:04;;;;;;;;;;;18.80;91.70;;;;;;5055802;28;19928;-75
2022/06/16 07:13:33;;;;;;;;;;;17.30;91.30;;;;;;5053979;28;20262;-75
2022/06/16 07:16:01;;;;;;;;;;;17.30;91.30;;;;;;5056270;28;19925;-75
2022/06/16 07:18:28;;;;;;;;;;;17.30;91.30;;;;;;5055975;28;20030;-74
2022/06/16 07:20:55;;;;;;;;;;;17.40;91.20;;;;;;5053946;28;19939;-75
2022/06/16 07:23:23;;;;;;;;;;;17.50;91.10;;;;;;5055228;28;20270;-74
2022/06/16 07:25:50;;;;;;;;;;;17.60;91.30;;;;;;5055987;28;19928;-74
2022/06/16 07:28:18;;;;;;;;;;;17.70;90.90;;;;;;5054999;28;19948;-75
2022/06/16 07:30:46;;;;;;;;;;;17.80;91.10;;;;;;5055846;28;19922;-74
2022/06/16 07:33:13;;;;;;;;;;;17.40;90.60;;;;;;5054955;28;20026;-75
2022/06/16 07:35:43;;;;;;;;;;;18.00;90.50;;;;;;5055835;28;19921;-75
2022/06/16 07:38:11;;;;;;;;;;;18.00;90.30;;;;;;5055854;28;19920;-75
2022/06/16 07:40:39;;;;;;;;;;;18.10;90.30;;;;;;5054695;28;19928;-75
2022/06/16 07:43:08;;;;;;;;;;;18.10;90.10;;;;;;5054822;28;20248;-74
2022/06/16 07:45:38;;;;;;;;;;;18.10;90.60;;;;;;5054467;28;20266;-76
2022/06/16 07:48:06;;;;;;;;;;;18.20;90.20;;;;;;5054554;28;19921;-75
2022/06/16 07:50:37;;;;;;;;;;;18.30;90.30;;;;;;5056307;28;19921;-75
2022/06/16 07:53:05;;;;;;;;;;;18.40;90.30;;;;;;5054700;28;19927;-75
2022/06/16 07:55:33;;;;;;;;;;;18.50;90.00;;;;;;5055679;28;20274;-75
2022/06/16 07:58:00;;;;;;;;;;;18.60;90.00;;;;;;5055778;28;19920;-74
2022/06/16 08:00:31;;;;;;;;;;;18.60;90.30;;;;;;5054488;28;20227;-74
2022/06/16 08:02:58;;;;;;;;;;;18.70;90.10;;;;;;5051754;28;20225;-75
2022/06/16 08:05:26;;;;;;;;;;;18.80;89.30;;;;;;5035855;28;20370;-75
2022/06/16 08:07:54;;;;;;;;;;;18.80;89.70;;;;;;5034636;28;19921;-75
2022/06/16 08:10:23;;;;;;;;;;;18.90;89.90;;;;;;5018232;28;19921;-75
2022/06/16 08:12:51;;;;;;;;;;;19.00;90.20;;;;;;5034650;28;19921;-75
2022/06/16 08:15:19;;;;;;;;;;;19.20;90.00;;;;;;5018152;28;20267;-74
2022/06/16 08:17:48;;;;;;;;;;;19.30;89.30;;;;;;5035480;28;19928;-74
2022/06/16 08:20:16;;;;;;;;;;;19.50;89.00;;;;;;5034323;28;19921;-74
2022/06/16 08:22:43;;;;;;;;;;;19.60;89.00;;;;;;5035172;28;19936;-74
2022/06/16 08:25:12;;;;;;;;;;;19.70;88.60;;;;;;5018311;28;19921;-74
2022/06/16 08:27:40;;;;;;;;;;;19.80;88.90;;;;;;5034082;28;19921;-74
2022/06/16 08:30:09;;;;;;;;;;;19.80;88.40;;;;;;5035299;28;19925;-74
2022/06/16 08:32:36;;;;;;;;;;;19.90;89.00;;;;;;5034753;28;19935;-75
2022/06/16 08:35:05;;;;;;;;;;;20.00;89.30;;;;;;5035936;28;19921;-74
2022/06/16 08:37:35;;;;;;;;;;;20.20;88.90;;;;;;5035517;28;20375;-74
2022/06/16 08:40:03;;;;;;;;;;;20.30;88.00;;;;;;5016755;28;20367;-74
2022/06/16 08:42:37;;;;;;;;;;;20.10;88.80;;;;;;5035779;28;19920;-75
2022/06/16 08:45:07;;;;;;;;;;;20.40;89.30;;;;;;5035077;28;19921;-75
2022/06/16 08:48:01;;;;;;;;;;;20.50;88.50;;;;;;5034265;28;19921;-74
2022/06/16 08:50:34;;;;;;;;;;;20.60;88.80;;;;;;4988830;28;19925;-75
2022/06/16 08:53:06;;;;;;;;;;;20.70;88.40;;;;;;5034298;28;19921;-74
2022/06/16 08:55:52;;;;;;;;;;;20.90;86.30;;;;;;5035301;28;19921;-75
2022/06/16 08:58:29;;;;;;;;;;;21.10;83.70;;;;;;5035274;28;19921;-74
2022/06/16 09:01:02;;;;;;;;;;;21.30;84.40;;;;;;5033234;28;19940;-74
2022/06/16 09:03:29;;;;;;;;;;;21.40;84.50;;;;;;5030578;28;19931;-76
2022/06/16 09:06:05;;;;;;;;;;;21.50;82.80;;;;;;5053527;28;19920;-71
2022/06/16 09:10:25;;;;;;;10.38;3.92;;;21.70;83.10;;;;;;5112358;27;20396;-81
2022/06/16 09:13:19;;;;;;;9.13;4.55;;;21.80;83.80;;;;;;5073345;28;20049;-74
2022/06/16 09:16:06;;;;;;;12.73;4.13;;;21.90;83.60;;;;;;5091699;28;20036;-75
2022/06/16 09:19:07;;;;;;;8.80;4.00;;;21.90;83.60;;;;;;5091858;28;20497;-75
2022/06/16 09:22:16;;;;;;;11.70;3.78;;;22.00;83.80;;;;;;5090564;28;20352;-75
2022/06/16 09:25:14;;;;;;;11.15;3.47;;;22.10;82.30;;;;;;5091744;28;20048;-75
2022/06/16 09:27:54;;;;;;;11.27;3.42;;;22.20;83.00;;;;;;5090718;28;20048;-75
2022/06/16 09:30:26;;;;;;;8.27;3.78;;;22.30;80.70;;;;;;5091376;28;20048;-75
2022/06/16 09:33:00;;;;;;;8.73;3.22;;;22.40;81.30;;;;;;5090491;28;20288;-75
2022/06/16 09:36:05;;;;;;;12.95;3.60;;;22.50;80.80;;;;;;5091426;28;20055;-74
2022/06/16 09:38:39;;;;;;;7.90;2.63;;;22.70;79.40;;;;;;4990108;28;20047;-74
2022/06/16 09:44:13;;;;;;;14.32;3.30;;;23.10;78.80;;;;;;5091085;28;20417;-75
2022/06/16 09:46:48;;;;;;;9.77;2.90;;;23.30;78.80;;;;;;5072078;28;20051;-74
2022/06/16 09:49:23;;;;;;;11.88;2.75;;;23.50;75.20;;;;;;5073446;28;20043;-73
2022/06/16 09:52:37;;;;;;;8.38;2.85;;;23.60;76.30;;;;;;5091263;28;20044;-73
2022/06/16 09:55:11;;;;;;;6.47;2.22;;;23.80;75.40;;;;;;5078608;28;20078;-73
2022/06/16 09:58:08;;;;;;;6.47;2.20;;;23.90;73.00;;;;;;5073465;28;20071;-73
2022/06/16 10:00:36;;;;;;;11.07;3.17;;;24.00;70.60;;;;;;5089770;28;20047;-73
2022/06/16 10:03:29;;;;;;;9.23;2.50;;;24.10;71.90;;;;;;5073207;28;20040;-74
2022/06/16 10:06:16;;;;;;;7.60;2.63;;;24.20;70.70;;;;;;5089831;28;20498;-73
2022/06/16 10:09:18;;;;;;;6.18;1.98;;;24.30;71.10;;;;;;5082939;28;20467;-73
2022/06/16 10:12:10;;;;;;;9.63;2.28;;;24.40;68.50;;;;;;5070385;28;20044;-72
2022/06/16 10:15:05;;;;;;;9.32;2.35;;;24.40;66.90;;;;;;5051650;28;20048;-77
2022/06/16 10:17:34;;;;;;;6.40;2.20;;;24.40;68.20;;;;;;5070385;28;20048;-76
2022/06/16 10:20:03;;;;;;;7.00;2.47;;;24.60;69.30;;;;;;5064488;28;20048;-73
2022/06/16 10:22:35;;;;;;;7.55;2.40;;;24.70;68.80;;;;;;5057054;28;20456;-75
2022/06/16 10:25:22;;;;;;;6.95;2.10;;;24.80;68.90;;;;;;5039545;28;20049;-75
2022/06/16 10:28:19;;;;;;;5.05;2.15;;;24.90;66.30;;;;;;5038589;28;20349;-75
2022/06/16 10:30:47;;;;;;;10.70;2.15;;;24.90;65.90;;;;;;5043441;28;20065;-77
2022/06/16 10:33:26;;;;;;;10.27;2.55;;;25.00;66.90;;;;;;5050571;28;20048;-75
2022/06/16 10:36:03;;;;;;;9.02;2.42;;;25.10;66.40;;;;;;5044901;28;20372;-74
2022/06/16 10:38:33;;;;;;;9.70;2.30;;;25.20;65.90;;;;;;5003429;28;20049;-77
2022/06/16 10:41:04;;;;;;;4.90;2.10;;;25.20;66.30;;;;;;5035429;28;20289;-76
2022/06/16 10:43:42;;;;;;;7.68;2.80;;;25.30;66.70;;;;;;5037068;28;20052;-76
2022/06/16 10:46:20;;;;;;;12.02;2.70;;;25.30;67.00;;;;;;5035693;28;20340;-74
2022/06/16 10:48:54;;;;;;;8.50;2.53;;;25.40;67.00;;;;;;5054578;28;20051;-74
2022/06/16 10:51:25;;;;;;;7.50;2.63;;;25.50;67.60;;;;;;5056401;28;20372;-74
2022/06/16 10:54:02;;;;;;;7.93;2.42;;;25.60;67.40;;;;;;5055727;28;20037;-73
2022/06/16 10:56:30;;;;;;;8.30;2.80;;;25.60;66.10;;;;;;5056446;28;20064;-74
2022/06/16 10:58:59;;;;;;;5.90;2.28;;;25.70;66.60;;;;;;5056509;28;20049;-76
2022/06/16 11:01:48;;;;;;;7.13;2.72;;;25.80;65.70;;;;;;5055201;28;20048;-76
2022/06/16 11:04:21;;;;;;;8.43;2.58;;;26.00;65.10;;;;;;5056164;28;20041;-75
2022/06/16 11:06:53;;;;;;;6.60;2.63;;;25.90;65.40;;;;;;5046836;28;20045;-75
2022/06/16 11:09:23;;;;;;;8.23;2.45;;;25.90;66.00;;;;;;5043750;28;20380;-75
2022/06/16 11:12:04;;;;;;;8.93;2.60;;;25.90;65.40;;;;;;5036245;28;20057;-75
2022/06/16 11:14:43;;;;;;;9.75;2.50;;;25.90;64.60;;;;;;5046159;28;20041;-75
2022/06/16 11:17:25;;;;;;;11.65;2.13;;;25.90;63.50;;;;;;5056364;28;20037;-75
2022/06/16 11:20:02;;;;;;;10.93;2.20;;;26.00;63.30;;;;;;5055051;28;20056;-78
2022/06/16 11:22:39;;;;;;;9.50;2.75;;;26.00;63.40;;;;;;5055797;28;20049;-75
2022/06/16 11:25:30;;;;;;;6.10;2.35;;;26.10;64.50;;;;;;5039220;28;20049;-78
2022/06/16 11:28:12;;;;;;;9.40;2.65;;;26.10;63.00;;;;;;5034722;28;20054;-75
2022/06/16 11:30:43;;;;;;;9.85;2.53;;;26.10;65.00;;;;;;5035795;28;20376;-75
2022/06/16 11:34:06;;;;;;;8.18;2.72;;;26.20;65.00;;;;;;5016335;28;20037;-76
2022/06/16 11:36:51;;;;;;;8.65;2.83;;;26.80;66.30;;;;;;5035723;28;20069;-76
2022/06/16 11:39:52;;;;;;;7.93;2.80;;;26.40;64.10;;;;;;5034365;28;20049;-76
2022/06/16 11:42:25;;;;;;;7.32;2.42;;;26.40;65.20;;;;;;5034188;28;20049;-75
2022/06/16 11:44:56;;;;;;;8.18;2.83;;;26.40;64.80;;;;;;5034389;28;20057;-75
2022/06/16 11:47:41;;;;;;;7.82;2.70;;;26.50;63.50;;;;;;5034286;28;20050;-75
2022/06/16 11:50:23;;;;;;;9.38;2.85;;;26.50;63.10;;;;;;5035052;28;20057;-75
2022/06/16 11:53:09;;;;;;;6.97;2.58;;;26.50;64.40;;;;;;5034023;28;20042;-74
2022/06/16 11:55:46;;;;;;;12.32;2.58;;;26.60;64.50;;;;;;5035059;28;20341;-75
2022/06/16 11:58:36;;;;;;;10.38;2.85;;;26.80;64.00;;;;;;5034675;28;20046;-74
2022/06/16 12:01:26;;;;;;;9.10;2.50;;;26.90;64.10;;;;;;5033864;28;20049;-75
2022/06/16 12:04:27;;;;;;;7.78;2.50;;;27.00;62.80;;;;;;5035015;28;20388;-75
2022/06/16 12:07:04;;;;;;;6.43;2.45;;;27.10;62.40;;;;;;5033721;28;20046;-75
2022/06/16 12:09:49;;;;;;;4.70;2.15;;;27.30;63.80;;;;;;5034540;28;20052;-75
2022/06/16 12:12:24;;;;;;;5.85;2.08;;;27.50;61.30;;;;;;5033446;28;20417;-75
2022/06/16 12:15:17;;;;;;;7.13;1.95;;;27.70;62.30;;;;;;5033368;28;20356;-75
2022/06/16 12:17:59;;;;;;;5.90;1.92;;;27.90;61.00;;;;;;5054546;28;20052;-75
2022/06/16 12:20:39;;;;;;;8.48;2.00;;;28.10;60.20;;;;;;5053707;28;20041;-75
2022/06/16 12:23:07;;;;;;;8.73;2.53;;;28.20;60.00;;;;;;5054596;28;20044;-75
2022/06/16 12:25:45;;;;;;;;;;;28.50;60.40;;;;;;5055097;28;20071;-75
2022/06/16 12:28:51;;;;;;;7.07;2.22;;;28.70;58.70;;;;;;5053311;28;19924;-75
2022/06/16 12:31:25;;;;;;;11.60;2.20;;;29.00;59.10;;;;;;5054268;28;20049;-74
2022/06/16 12:34:13;;;;;;;5.43;2.28;;;29.20;59.50;;;;;;5053456;28;20044;-74
2022/06/16 12:36:51;;;;;;;4.53;2.33;;;29.20;58.30;;;;;;5054435;28;20379;-74
2022/06/16 12:39:23;;;;;;;9.82;2.58;;;29.20;59.10;;;;;;5053676;28;20365;-74
2022/06/16 12:41:55;;;;;;;6.30;2.38;;;29.10;59.20;;;;;;5054227;28;20045;-74
2022/06/16 12:44:30;;;;;;;13.38;3.20;;;29.10;59.00;;;;;;5043890;28;20045;-75
2022/06/16 12:47:17;;;;;;;8.85;2.72;;;29.10;58.60;;;;;;5043820;28;20045;-77
2022/06/16 12:49:58;;;;;;;8.32;2.50;;;29.00;58.30;;;;;;5001433;28;20056;-75
2022/06/16 12:52:58;;;;;;;11.00;2.40;;;29.10;59.90;;;;;;5017521;28;20052;-76
2022/06/16 12:55:37;;;;;;;7.57;2.83;;;29.10;56.50;;;;;;4985171;28;20053;-75
2022/06/16 12:58:22;;;;;;;7.75;2.40;;;29.10;58.60;;;;;;5034368;28;20041;-79
2022/06/16 13:00:55;;;;;;;12.20;2.30;;;29.00;58.30;;;;;;5044221;28;20368;-76
2022/06/16 13:03:30;;;;;;;10.13;2.30;;;28.80;58.60;;;;;;5026435;28;20049;-75
2022/06/16 13:05:59;;;;;;;6.72;2.13;;;28.70;59.10;;;;;;5035977;28;20049;-75
2022/06/16 13:08:30;;;;;;;9.73;2.45;;;28.60;59.80;;;;;;5053827;28;20064;-75
2022/06/16 13:11:03;;;;;;;9.60;2.50;;;28.50;58.20;;;;;;5054223;28;20367;-75
2022/06/16 13:13:45;;;;;;;7.43;2.10;;;28.60;57.70;;;;;;5053856;28;20053;-75
2022/06/16 13:16:19;;;;;;;4.80;2.10;;;28.60;57.80;;;;;;5054251;28;20360;-76
2022/06/16 13:19:06;;;;;;;6.15;2.40;;;28.80;57.60;;;;;;5036982;28;20052;-77
2022/06/16 13:21:42;;;;;;;4.43;1.85;;;28.90;55.30;;;;;;5053091;28;20049;-74
2022/06/16 13:24:21;;;;;;;7.07;2.22;;;29.00;54.10;;;;;;5054558;28;20095;-75
2022/06/16 13:27:11;;;;;;;7.47;2.10;;;29.40;55.80;;;;;;5029746;28;20046;-78
2022/06/16 13:29:52;;;;;;;6.28;1.90;;;30.40;53.00;;;;;;4984766;28;20058;-73
2022/06/16 13:32:38;;;;;;;6.82;1.85;;;31.00;52.50;;;;;;5032753;28;20049;-67
2022/06/16 13:35:14;;;;;;;7.15;1.90;;;31.90;52.70;;;;;;5033906;28;20042;-78
2022/06/16 13:37:42;;;;;;;4.97;1.80;;;33.20;50.40;;;;;;5033944;28;20380;-78
2022/06/16 13:40:09;;;;;;;5.53;1.83;;;34.30;51.00;;;;;;5032737;28;20049;-80
2022/06/16 13:42:51;;;;;;;6.47;1.92;;;35.10;50.80;;;;;;5034320;28;20049;-81
2022/06/16 13:45:30;;;;;;;4.82;2.00;;;35.50;48.60;;;;;;5034012;28;20056;-80
2022/06/16 13:48:14;;;;;;;5.82;1.85;;;35.70;49.20;;;;;;5032909;28;20041;-75
2022/06/16 13:50:55;;;;;;;9.30;2.22;;;36.30;45.80;;;;;;5033646;28;20046;-74
2022/06/16 13:53:28;;;;;;;5.65;2.10;;;37.10;44.90;;;;;;5032683;28;20042;-77
2022/06/16 13:56:06;;;;;;;7.07;1.90;;;37.70;46.50;;;;;;5035758;28;20038;-81
2022/06/16 13:58:54;;;;;;;6.78;1.95;;;38.10;45.50;;;;;;5037549;28;20044;-80
2022/06/16 14:01:32;;;;;;;5.28;1.65;;;38.70;45.20;;;;;;5036160;28;20387;-81
2022/06/16 14:04:06;;;;;;;7.43;1.85;;;38.90;42.90;;;;;;5020384;28;20045;-81
2022/06/16 14:06:44;;;;;;;8.13;1.88;;;39.20;44.10;;;;;;5018958;28;20049;-77
2022/06/16 14:09:23;;;;;;;3.20;1.50;;;39.40;42.60;;;;;;5037000;28;20049;-78
2022/06/16 14:12:06;;;;;;;4.93;1.83;;;39.30;42.80;;;;;;5037605;28;20064;-77
2022/06/16 14:14:54;;;;;;;5.25;1.65;;;39.60;43.00;;;;;;5018431;28;20049;-77
2022/06/16 14:17:43;;;;;;;4.07;1.58;;;40.00;42.60;;;;;;5037231;28;20041;-77
2022/06/16 14:20:23;;;;;;;4.90;1.80;;;39.80;40.90;;;;;;5036059;28;20467;-77
2022/06/16 14:22:56;;;;;;;6.03;1.73;;;39.60;42.50;;;;;;5037223;28;20052;-76
2022/06/16 14:25:37;;;;;;;4.43;1.42;;;39.20;42.20;;;;;;5037296;28;20372;-77
2022/06/16 14:28:11;;;;;;;5.00;1.65;;;38.40;42.60;;;;;;5035706;28;20041;-77
2022/06/16 14:30:46;;;;;;;6.97;2.00;;;37.80;43.10;;;;;;5036542;28;20042;-77
2022/06/16 14:33:53;;;;;;;5.60;1.63;;;37.20;43.30;;;;;;5019618;28;20042;-79
2022/06/16 14:36:23;;;;;;;4.22;1.73;;;37.40;43.10;;;;;;5036846;28;20046;-79
2022/06/16 14:39:24;;;;;;;5.80;1.80;;;38.30;43.20;;;;;;5037303;28;20052;-77
2022/06/16 14:42:07;;;;;;;5.38;1.80;;;38.90;41.50;;;;;;5036905;28;20049;-77
2022/06/16 14:44:41;;;;;;;5.20;1.67;;;39.70;41.40;;;;;;5036132;28;20045;-77
2022/06/16 14:47:43;;;;;;;8.95;1.77;;;40.00;41.10;;;;;;5035840;28;20068;-76